Sylvania, GA (30467)

02:16 EST le 29 novembre 2014 (GMT -0500)
Plantation | Change Station
CLOSE
Current Station
Aéroport
Location: Sylvania,
Altitude: 187 ft
Stations météo à proximité

Alt. 187 ft 32.65 °N, 81.60 °W | Updated 21 minutes ago

Ciel dégagé
Ciel dégagé
34 ° F
Paraît 34 ° F
N
0
Vent Variable Vent de Nord

Aujourd'hui
Haut(e) -- | Bas -- ° F
--% Risque de précip.
Hier
Haut(e) -- | Bas -- ° F
Precip. -- pouce
7:09 AM 5:20 PM
Lune montante, 49% visible
Pression 30.32 pouce
Visibilité 7.0 Miles terrestres
Nuages Ciel dégagé
Point de rosée 34 ° F
Humidité 99%
Précipitations 0.00 pouce
Profondeur de la couche neigeuse Non disponible.
UV 0 sur 12
Pollen .30 sur 12
Qualité de l'air Non disponible.
Flu Activity Non disponible.
METAR KJYL 290655Z AUTO 00000KT 7SM CLR 01/01 A3032 RMK AO2 T00110009

More Conditions Fewer Conditions

Pression 30.32 pouce
Visibilité 7.0 Miles terrestres
Nuages Ciel dégagé
Point de rosée 34 ° F
Humidité 99%
Précipitations 0.00 pouce
Profondeur de la couche neigeuse Non disponible.
UV 0 sur 12
Pollen .30 sur 12
Qualité de l'air Non disponible.
Flu Activity Non disponible.
METAR KJYL 290655Z AUTO 00000KT 7SM CLR 01/01 A3032 RMK AO2 T00110009

More Conditions Fewer Conditions

10-Day Weather Forecast

Almanac

Astronomie

Nov. 29, 2014 Lever Coucher
Temps réel
Crépuscule civil
Crépuscule nautique
Crépuscule astronomique
Lune
Durée de lumière visible
Longueur du jour
Tomorrow will be .
, % of the Moon is Illuminated

Extrêmes aujourd'hui

State Highs State Lows

Community

WunderPhotos

Upload Photos

1,774,432 Photos téléchargées !

WunderBlogs® & News

Nearby

Qualité de l'air

  Qualité de l'air Indice de la qualité de l'air Polluant
Not available.

Épaisseur de neige

Station Depth Altitude

Activité sismique

Ville Distance Mag. Time & Date
Minimum magnitude displayed is 2.5.

Températures des eaux côtières

Lieu Température

Stations météo à proximité